sensor_id;sensor_type;location;lat;lon;timestamp;P1;durP1;ratioP1;P2;durP2;ratioP2
76210;SDS011;65003;49.518;11.280;2024-01-15T00:00:52;45.63;;;18.30;;
76210;SDS011;65003;49.518;11.280;2024-01-15T00:03:18;36.83;;;16.40;;
76210;SDS011;65003;49.518;11.280;2024-01-15T00:05:46;37.90;;;16.57;;
76210;SDS011;65003;49.518;11.280;2024-01-15T00:08:12;37.83;;;15.83;;
76210;SDS011;65003;49.518;11.280;2024-01-15T00:10:39;35.33;;;15.43;;
76210;SDS011;65003;49.518;11.280;2024-01-15T00:13:06;42.23;;;16.87;;
76210;SDS011;65003;49.518;11.280;2024-01-15T00:15:34;34.67;;;14.00;;
76210;SDS011;65003;49.518;11.280;2024-01-15T00:18:01;36.47;;;15.03;;
76210;SDS011;65003;49.518;11.280;2024-01-15T00:20:27;35.23;;;14.27;;
76210;SDS011;65003;49.518;11.280;2024-01-15T00:22:55;36.90;;;14.07;;
76210;SDS011;65003;49.518;11.280;2024-01-15T00:25:22;30.33;;;12.60;;
76210;SDS011;65003;49.518;11.280;2024-01-15T00:27:49;35.27;;;14.93;;
76210;SDS011;65003;49.518;11.280;2024-01-15T00:30:16;36.43;;;14.63;;
76210;SDS011;65003;49.518;11.280;2024-01-15T00:32:43;35.77;;;14.90;;
76210;SDS011;65003;49.518;11.280;2024-01-15T00:35:10;35.73;;;14.43;;
76210;SDS011;65003;49.518;11.280;2024-01-15T00:37:37;37.00;;;14.97;;
76210;SDS011;65003;49.518;11.280;2024-01-15T00:40:06;37.73;;;16.17;;
76210;SDS011;65003;49.518;11.280;2024-01-15T00:42:33;37.67;;;16.43;;
76210;SDS011;65003;49.518;11.280;2024-01-15T00:45:00;35.13;;;15.23;;
76210;SDS011;65003;49.518;11.280;2024-01-15T00:47:26;38.77;;;16.47;;
76210;SDS011;65003;49.518;11.280;2024-01-15T00:49:53;41.97;;;16.50;;
76210;SDS011;65003;49.518;11.280;2024-01-15T00:52:21;39.07;;;15.63;;
76210;SDS011;65003;49.518;11.280;2024-01-15T00:54:50;40.80;;;15.13;;
76210;SDS011;65003;49.518;11.280;2024-01-15T00:57:16;37.53;;;14.60;;
76210;SDS011;65003;49.518;11.280;2024-01-15T00:59:43;34.87;;;14.97;;
76210;SDS011;65003;49.518;11.280;2024-01-15T01:02:10;34.30;;;15.77;;
76210;SDS011;65003;49.518;11.280;2024-01-15T01:04:36;36.23;;;14.57;;
76210;SDS011;65003;49.518;11.280;2024-01-15T01:07:04;38.60;;;15.90;;
76210;SDS011;65003;49.518;11.280;2024-01-15T01:09:31;31.97;;;14.27;;
76210;SDS011;65003;49.518;11.280;2024-01-15T01:11:59;42.23;;;15.33;;
76210;SDS011;65003;49.518;11.280;2024-01-15T01:14:25;36.07;;;15.47;;
76210;SDS011;65003;49.518;11.280;2024-01-15T01:16:52;35.47;;;15.00;;
76210;SDS011;65003;49.518;11.280;2024-01-15T01:19:19;39.37;;;15.87;;
76210;SDS011;65003;49.518;11.280;2024-01-15T01:21:46;39.83;;;16.60;;
76210;SDS011;65003;49.518;11.280;2024-01-15T01:24:12;37.23;;;15.37;;
76210;SDS011;65003;49.518;11.280;2024-01-15T01:26:39;39.90;;;15.73;;
76210;SDS011;65003;49.518;11.280;2024-01-15T01:29:06;35.27;;;15.50;;
76210;SDS011;65003;49.518;11.280;2024-01-15T01:31:33;36.30;;;14.40;;
76210;SDS011;65003;49.518;11.280;2024-01-15T01:34:01;35.90;;;14.73;;
76210;SDS011;65003;49.518;11.280;2024-01-15T01:36:27;33.87;;;14.93;;
76210;SDS011;65003;49.518;11.280;2024-01-15T01:38:54;36.03;;;15.57;;
76210;SDS011;65003;49.518;11.280;2024-01-15T01:41:21;41.77;;;15.73;;
76210;SDS011;65003;49.518;11.280;2024-01-15T01:43:48;37.73;;;15.50;;
76210;SDS011;65003;49.518;11.280;2024-01-15T01:46:15;37.70;;;14.17;;
76210;SDS011;65003;49.518;11.280;2024-01-15T01:48:41;37.03;;;15.50;;
76210;SDS011;65003;49.518;11.280;2024-01-15T01:51:08;30.50;;;14.93;;
76210;SDS011;65003;49.518;11.280;2024-01-15T01:53:34;35.97;;;14.73;;
76210;SDS011;65003;49.518;11.280;2024-01-15T01:56:01;36.00;;;14.67;;
76210;SDS011;65003;49.518;11.280;2024-01-15T01:58:27;36.87;;;15.50;;
76210;SDS011;65003;49.518;11.280;2024-01-15T02:00:55;34.90;;;14.57;;
76210;SDS011;65003;49.518;11.280;2024-01-15T02:03:21;35.27;;;15.37;;
76210;SDS011;65003;49.518;11.280;2024-01-15T02:05:48;36.43;;;14.60;;
76210;SDS011;65003;49.518;11.280;2024-01-15T02:08:15;39.83;;;15.40;;
76210;SDS011;65003;49.518;11.280;2024-01-15T02:10:41;35.40;;;14.33;;
76210;SDS011;65003;49.518;11.280;2024-01-15T02:13:08;35.47;;;15.10;;
76210;SDS011;65003;49.518;11.280;2024-01-15T02:15:35;37.77;;;15.53;;
76210;SDS011;65003;49.518;11.280;2024-01-15T02:18:02;38.03;;;15.37;;
76210;SDS011;65003;49.518;11.280;2024-01-15T02:20:28;37.13;;;14.73;;
76210;SDS011;65003;49.518;11.280;2024-01-15T02:23:03;37.57;;;15.13;;
76210;SDS011;65003;49.518;11.280;2024-01-15T02:25:27;40.13;;;14.80;;
76210;SDS011;65003;49.518;11.280;2024-01-15T02:27:54;36.87;;;15.73;;
76210;SDS011;65003;49.518;11.280;2024-01-15T02:30:20;28.47;;;14.10;;
76210;SDS011;65003;49.518;11.280;2024-01-15T02:32:47;34.47;;;13.77;;
76210;SDS011;65003;49.518;11.280;2024-01-15T02:35:14;31.50;;;15.17;;
76210;SDS011;65003;49.518;11.280;2024-01-15T02:37:41;39.93;;;15.47;;
76210;SDS011;65003;49.518;11.280;2024-01-15T02:40:08;35.37;;;13.70;;
76210;SDS011;65003;49.518;11.280;2024-01-15T02:42:35;34.10;;;14.10;;
76210;SDS011;65003;49.518;11.280;2024-01-15T02:45:01;32.43;;;15.00;;
76210;SDS011;65003;49.518;11.280;2024-01-15T02:47:28;34.87;;;14.50;;
76210;SDS011;65003;49.518;11.280;2024-01-15T02:49:54;33.00;;;14.77;;
76210;SDS011;65003;49.518;11.280;2024-01-15T02:52:21;34.20;;;14.60;;
76210;SDS011;65003;49.518;11.280;2024-01-15T02:54:48;37.13;;;14.60;;
76210;SDS011;65003;49.518;11.280;2024-01-15T02:57:14;37.37;;;15.00;;
76210;SDS011;65003;49.518;11.280;2024-01-15T02:59:42;34.23;;;13.80;;
76210;SDS011;65003;49.518;11.280;2024-01-15T03:02:08;34.30;;;14.57;;
76210;SDS011;65003;49.518;11.280;2024-01-15T03:04:35;34.73;;;14.20;;
76210;SDS011;65003;49.518;11.280;2024-01-15T03:07:02;29.07;;;14.43;;
76210;SDS011;65003;49.518;11.280;2024-01-15T03:09:28;31.97;;;13.13;;
76210;SDS011;65003;49.518;11.280;2024-01-15T03:11:55;28.67;;;12.93;;
76210;SDS011;65003;49.518;11.280;2024-01-15T03:14:21;30.47;;;14.67;;
76210;SDS011;65003;49.518;11.280;2024-01-15T03:16:48;29.60;;;13.07;;
76210;SDS011;65003;49.518;11.280;2024-01-15T03:19:14;29.10;;;12.27;;
76210;SDS011;65003;49.518;11.280;2024-01-15T03:21:41;27.97;;;13.37;;
76210;SDS011;65003;49.518;11.280;2024-01-15T03:24:08;30.70;;;12.50;;
76210;SDS011;65003;49.518;11.280;2024-01-15T03:26:35;29.87;;;14.13;;
76210;SDS011;65003;49.518;11.280;2024-01-15T03:29:02;30.00;;;13.27;;
76210;SDS011;65003;49.518;11.280;2024-01-15T03:31:28;28.77;;;12.30;;
76210;SDS011;65003;49.518;11.280;2024-01-15T03:33:55;30.47;;;14.03;;
76210;SDS011;65003;49.518;11.280;2024-01-15T03:36:21;29.70;;;12.47;;
76210;SDS011;65003;49.518;11.280;2024-01-15T03:38:48;28.30;;;13.47;;
76210;SDS011;65003;49.518;11.280;2024-01-15T03:41:15;29.87;;;12.23;;
76210;SDS011;65003;49.518;11.280;2024-01-15T03:43:41;27.07;;;12.63;;
76210;SDS011;65003;49.518;11.280;2024-01-15T03:46:08;27.33;;;11.50;;
76210;SDS011;65003;49.518;11.280;2024-01-15T03:48:34;29.47;;;11.73;;
76210;SDS011;65003;49.518;11.280;2024-01-15T03:51:01;24.40;;;11.00;;
76210;SDS011;65003;49.518;11.280;2024-01-15T03:53:28;26.47;;;11.87;;
76210;SDS011;65003;49.518;11.280;2024-01-15T03:55:55;27.27;;;11.70;;
76210;SDS011;65003;49.518;11.280;2024-01-15T03:58:21;27.63;;;11.37;;
76210;SDS011;65003;49.518;11.280;2024-01-15T04:00:48;28.17;;;11.27;;
76210;SDS011;65003;49.518;11.280;2024-01-15T04:03:15;24.53;;;10.03;;
76210;SDS011;65003;49.518;11.280;2024-01-15T04:05:41;22.20;;;11.23;;
76210;SDS011;65003;49.518;11.280;2024-01-15T04:08:08;22.50;;;10.47;;
76210;SDS011;65003;49.518;11.280;2024-01-15T04:10:35;23.07;;;10.37;;
76210;SDS011;65003;49.518;11.280;2024-01-15T04:13:03;24.63;;;10.83;;
76210;SDS011;65003;49.518;11.280;2024-01-15T04:15:30;20.87;;;9.67;;
76210;SDS011;65003;49.518;11.280;2024-01-15T04:17:57;24.23;;;10.08;;
76210;SDS011;65003;49.518;11.280;2024-01-15T04:20:24;27.03;;;10.60;;
76210;SDS011;65003;49.518;11.280;2024-01-15T04:22:51;22.13;;;10.13;;
76210;SDS011;65003;49.518;11.280;2024-01-15T04:25:17;21.00;;;9.80;;
76210;SDS011;65003;49.518;11.280;2024-01-15T04:27:45;27.03;;;10.70;;
76210;SDS011;65003;49.518;11.280;2024-01-15T04:30:12;19.80;;;9.03;;
76210;SDS011;65003;49.518;11.280;2024-01-15T04:32:39;29.93;;;15.30;;
76210;SDS011;65003;49.518;11.280;2024-01-15T04:35:06;23.97;;;11.53;;
76210;SDS011;65003;49.518;11.280;2024-01-15T04:37:33;22.03;;;11.67;;
76210;SDS011;65003;49.518;11.280;2024-01-15T04:40:00;23.63;;;14.10;;
76210;SDS011;65003;49.518;11.280;2024-01-15T04:42:26;30.60;;;14.90;;
76210;SDS011;65003;49.518;11.280;2024-01-15T04:44:53;29.60;;;17.87;;
76210;SDS011;65003;49.518;11.280;2024-01-15T04:47:19;25.13;;;12.97;;
76210;SDS011;65003;49.518;11.280;2024-01-15T04:49:46;25.43;;;14.90;;
76210;SDS011;65003;49.518;11.280;2024-01-15T04:52:13;26.30;;;10.73;;
76210;SDS011;65003;49.518;11.280;2024-01-15T04:54:39;19.00;;;8.57;;
76210;SDS011;65003;49.518;11.280;2024-01-15T04:57:06;23.03;;;9.80;;
76210;SDS011;65003;49.518;11.280;2024-01-15T04:59:32;19.27;;;8.50;;
76210;SDS011;65003;49.518;11.280;2024-01-15T05:01:59;22.63;;;10.17;;
76210;SDS011;65003;49.518;11.280;2024-01-15T05:04:26;19.37;;;9.53;;
76210;SDS011;65003;49.518;11.280;2024-01-15T05:06:53;22.33;;;11.57;;
76210;SDS011;65003;49.518;11.280;2024-01-15T05:09:19;21.33;;;8.70;;
76210;SDS011;65003;49.518;11.280;2024-01-15T05:11:45;21.93;;;9.97;;
76210;SDS011;65003;49.518;11.280;2024-01-15T05:14:12;17.80;;;8.60;;
76210;SDS011;65003;49.518;11.280;2024-01-15T05:16:39;22.13;;;9.20;;
76210;SDS011;65003;49.518;11.280;2024-01-15T05:19:07;19.83;;;10.57;;
76210;SDS011;65003;49.518;11.280;2024-01-15T05:21:32;33.80;;;20.00;;
76210;SDS011;65003;49.518;11.280;2024-01-15T05:23:58;28.23;;;19.63;;
76210;SDS011;65003;49.518;11.280;2024-01-15T05:26:25;26.33;;;14.50;;
76210;SDS011;65003;49.518;11.280;2024-01-15T05:28:52;24.00;;;12.07;;
76210;SDS011;65003;49.518;11.280;2024-01-15T05:31:18;21.93;;;10.77;;
76210;SDS011;65003;49.518;11.280;2024-01-15T05:33:45;22.50;;;11.07;;
76210;SDS011;65003;49.518;11.280;2024-01-15T05:36:11;23.23;;;11.53;;
76210;SDS011;65003;49.518;11.280;2024-01-15T05:38:38;23.40;;;12.17;;
76210;SDS011;65003;49.518;11.280;2024-01-15T05:41:05;20.70;;;11.13;;
76210;SDS011;65003;49.518;11.280;2024-01-15T05:43:32;21.60;;;10.80;;
76210;SDS011;65003;49.518;11.280;2024-01-15T05:45:58;22.70;;;9.80;;
76210;SDS011;65003;49.518;11.280;2024-01-15T05:48:25;20.83;;;10.73;;
76210;SDS011;65003;49.518;11.280;2024-01-15T05:50:51;24.70;;;11.57;;
76210;SDS011;65003;49.518;11.280;2024-01-15T05:53:18;24.33;;;12.03;;
76210;SDS011;65003;49.518;11.280;2024-01-15T05:55:44;24.77;;;11.53;;
76210;SDS011;65003;49.518;11.280;2024-01-15T05:58:11;26.40;;;11.43;;
76210;SDS011;65003;49.518;11.280;2024-01-15T06:00:38;23.30;;;10.57;;
76210;SDS011;65003;49.518;11.280;2024-01-15T06:03:04;27.63;;;12.83;;
76210;SDS011;65003;49.518;11.280;2024-01-15T06:05:31;40.00;;;19.70;;
76210;SDS011;65003;49.518;11.280;2024-01-15T06:07:58;31.60;;;17.03;;
76210;SDS011;65003;49.518;11.280;2024-01-15T06:10:24;29.53;;;15.93;;
76210;SDS011;65003;49.518;11.280;2024-01-15T06:12:51;27.23;;;13.10;;
76210;SDS011;65003;49.518;11.280;2024-01-15T06:15:17;42.03;;;19.30;;
76210;SDS011;65003;49.518;11.280;2024-01-15T06:17:44;36.83;;;17.20;;
76210;SDS011;65003;49.518;11.280;2024-01-15T06:20:11;41.83;;;16.27;;
76210;SDS011;65003;49.518;11.280;2024-01-15T06:22:38;69.03;;;35.50;;
76210;SDS011;65003;49.518;11.280;2024-01-15T06:25:06;29.40;;;13.63;;
76210;SDS011;65003;49.518;11.280;2024-01-15T06:27:32;36.37;;;17.40;;
76210;SDS011;65003;49.518;11.280;2024-01-15T06:29:59;26.97;;;12.67;;
76210;SDS011;65003;49.518;11.280;2024-01-15T06:32:25;25.23;;;11.87;;
76210;SDS011;65003;49.518;11.280;2024-01-15T06:34:52;43.57;;;21.70;;
76210;SDS011;65003;49.518;11.280;2024-01-15T06:37:18;37.57;;;18.67;;
76210;SDS011;65003;49.518;11.280;2024-01-15T06:39:45;24.00;;;11.77;;
76210;SDS011;65003;49.518;11.280;2024-01-15T06:42:12;27.50;;;14.23;;
76210;SDS011;65003;49.518;11.280;2024-01-15T06:44:38;40.57;;;22.27;;
76210;SDS011;65003;49.518;11.280;2024-01-15T06:47:05;36.43;;;20.53;;
76210;SDS011;65003;49.518;11.280;2024-01-15T06:49:31;44.70;;;21.50;;
76210;SDS011;65003;49.518;11.280;2024-01-15T06:51:58;27.63;;;13.50;;
76210;SDS011;65003;49.518;11.280;2024-01-15T06:54:25;25.73;;;12.67;;
76210;SDS011;65003;49.518;11.280;2024-01-15T06:56:51;21.77;;;10.73;;
76210;SDS011;65003;49.518;11.280;2024-01-15T06:59:18;18.03;;;10.27;;
76210;SDS011;65003;49.518;11.280;2024-01-15T07:01:45;20.67;;;10.00;;
76210;SDS011;65003;49.518;11.280;2024-01-15T07:04:12;17.17;;;8.40;;
76210;SDS011;65003;49.518;11.280;2024-01-15T07:06:39;18.27;;;7.37;;
76210;SDS011;65003;49.518;11.280;2024-01-15T07:09:06;21.33;;;10.70;;
76210;SDS011;65003;49.518;11.280;2024-01-15T07:11:32;18.67;;;10.03;;
76210;SDS011;65003;49.518;11.280;2024-01-15T07:13:59;20.53;;;11.27;;
76210;SDS011;65003;49.518;11.280;2024-01-15T07:16:25;29.47;;;13.73;;
76210;SDS011;65003;49.518;11.280;2024-01-15T07:18:53;20.00;;;10.60;;
76210;SDS011;65003;49.518;11.280;2024-01-15T07:21:20;16.73;;;9.43;;
76210;SDS011;65003;49.518;11.280;2024-01-15T07:23:46;20.80;;;9.70;;
76210;SDS011;65003;49.518;11.280;2024-01-15T07:26:13;20.03;;;9.63;;
76210;SDS011;65003;49.518;11.280;2024-01-15T07:28:39;18.40;;;8.07;;
76210;SDS011;65003;49.518;11.280;2024-01-15T07:31:06;20.67;;;9.10;;
76210;SDS011;65003;49.518;11.280;2024-01-15T07:33:32;19.57;;;9.00;;
76210;SDS011;65003;49.518;11.280;2024-01-15T07:35:59;19.57;;;8.67;;
76210;SDS011;65003;49.518;11.280;2024-01-15T07:38:26;18.73;;;9.13;;
76210;SDS011;65003;49.518;11.280;2024-01-15T07:40:53;18.10;;;9.50;;
76210;SDS011;65003;49.518;11.280;2024-01-15T07:43:20;35.40;;;16.93;;
76210;SDS011;65003;49.518;11.280;2024-01-15T07:45:46;26.73;;;14.53;;
76210;SDS011;65003;49.518;11.280;2024-01-15T07:48:13;20.75;;;10.28;;
76210;SDS011;65003;49.518;11.280;2024-01-15T07:50:39;16.13;;;8.63;;
76210;SDS011;65003;49.518;11.280;2024-01-15T07:53:06;21.83;;;9.63;;
76210;SDS011;65003;49.518;11.280;2024-01-15T07:55:32;17.10;;;9.17;;
76210;SDS011;65003;49.518;11.280;2024-01-15T07:57:59;18.53;;;8.60;;
76210;SDS011;65003;49.518;11.280;2024-01-15T08:00:26;17.53;;;9.80;;
76210;SDS011;65003;49.518;11.280;2024-01-15T08:02:52;18.97;;;8.93;;
76210;SDS011;65003;49.518;11.280;2024-01-15T08:05:19;19.10;;;9.10;;
76210;SDS011;65003;49.518;11.280;2024-01-15T08:07:46;17.00;;;8.37;;
76210;SDS011;65003;49.518;11.280;2024-01-15T08:10:12;14.80;;;7.87;;
76210;SDS011;65003;49.518;11.280;2024-01-15T08:12:39;17.37;;;8.17;;
76210;SDS011;65003;49.518;11.280;2024-01-15T08:15:05;15.17;;;7.67;;
76210;SDS011;65003;49.518;11.280;2024-01-15T08:17:32;17.43;;;8.47;;
76210;SDS011;65003;49.518;11.280;2024-01-15T08:19:59;16.43;;;9.27;;
76210;SDS011;65003;49.518;11.280;2024-01-15T08:22:26;16.53;;;9.30;;
76210;SDS011;65003;49.518;11.280;2024-01-15T08:24:53;18.33;;;8.50;;
76210;SDS011;65003;49.518;11.280;2024-01-15T08:27:19;17.87;;;9.47;;
76210;SDS011;65003;49.518;11.280;2024-01-15T08:29:46;15.03;;;8.73;;
76210;SDS011;65003;49.518;11.280;2024-01-15T08:32:12;15.83;;;8.53;;
76210;SDS011;65003;49.518;11.280;2024-01-15T08:34:39;14.40;;;7.80;;
76210;SDS011;65003;49.518;11.280;2024-01-15T08:37:05;16.77;;;7.57;;
76210;SDS011;65003;49.518;11.280;2024-01-15T08:39:32;16.13;;;7.80;;
76210;SDS011;65003;49.518;11.280;2024-01-15T08:41:59;15.47;;;7.47;;
76210;SDS011;65003;49.518;11.280;2024-01-15T08:44:25;25.80;;;12.90;;
76210;SDS011;65003;49.518;11.280;2024-01-15T08:46:52;15.60;;;9.93;;
76210;SDS011;65003;49.518;11.280;2024-01-15T08:49:18;18.07;;;9.20;;
76210;SDS011;65003;49.518;11.280;2024-01-15T08:51:45;17.33;;;10.00;;
76210;SDS011;65003;49.518;11.280;2024-01-15T08:54:12;19.80;;;9.13;;
76210;SDS011;65003;49.518;11.280;2024-01-15T08:56:38;21.43;;;9.70;;
76210;SDS011;65003;49.518;11.280;2024-01-15T08:59:05;18.23;;;8.93;;
76210;SDS011;65003;49.518;11.280;2024-01-15T09:01:31;19.70;;;9.13;;
76210;SDS011;65003;49.518;11.280;2024-01-15T09:03:58;18.37;;;8.50;;
76210;SDS011;65003;49.518;11.280;2024-01-15T09:06:25;15.47;;;8.50;;
76210;SDS011;65003;49.518;11.280;2024-01-15T09:08:51;13.93;;;8.47;;
76210;SDS011;65003;49.518;11.280;2024-01-15T09:11:18;18.00;;;9.03;;
76210;SDS011;65003;49.518;11.280;2024-01-15T09:13:44;14.70;;;8.17;;
76210;SDS011;65003;49.518;11.280;2024-01-15T09:16:11;19.23;;;9.83;;
76210;SDS011;65003;49.518;11.280;2024-01-15T09:18:37;21.83;;;9.33;;
76210;SDS011;65003;49.518;11.280;2024-01-15T09:21:04;15.03;;;8.53;;
76210;SDS011;65003;49.518;11.280;2024-01-15T09:23:31;15.00;;;8.07;;
76210;SDS011;65003;49.518;11.280;2024-01-15T09:25:57;18.13;;;9.17;;
76210;SDS011;65003;49.518;11.280;2024-01-15T09:28:24;18.30;;;8.93;;
76210;SDS011;65003;49.518;11.280;2024-01-15T09:30:51;19.10;;;9.63;;
76210;SDS011;65003;49.518;11.280;2024-01-15T09:33:17;17.83;;;9.10;;
76210;SDS011;65003;49.518;11.280;2024-01-15T09:35:44;18.57;;;9.80;;
76210;SDS011;65003;49.518;11.280;2024-01-15T09:38:10;24.57;;;12.60;;
76210;SDS011;65003;49.518;11.280;2024-01-15T09:40:38;19.67;;;10.47;;
76210;SDS011;65003;49.518;11.280;2024-01-15T09:43:04;16.50;;;8.93;;
76210;SDS011;65003;49.518;11.280;2024-01-15T09:45:30;15.90;;;9.00;;
76210;SDS011;65003;49.518;11.280;2024-01-15T09:47:57;18.40;;;9.45;;
76210;SDS011;65003;49.518;11.280;2024-01-15T09:50:24;18.57;;;8.50;;
76210;SDS011;65003;49.518;11.280;2024-01-15T09:52:50;11.67;;;7.60;;
76210;SDS011;65003;49.518;11.280;2024-01-15T09:55:17;16.40;;;8.13;;
76210;SDS011;65003;49.518;11.280;2024-01-15T09:57:44;16.10;;;8.43;;
76210;SDS011;65003;49.518;11.280;2024-01-15T10:00:10;13.17;;;7.97;;
76210;SDS011;65003;49.518;11.280;2024-01-15T10:02:37;14.33;;;7.23;;
76210;SDS011;65003;49.518;11.280;2024-01-15T10:05:04;23.17;;;12.87;;
76210;SDS011;65003;49.518;11.280;2024-01-15T10:07:30;21.30;;;11.20;;
76210;SDS011;65003;49.518;11.280;2024-01-15T10:09:57;24.60;;;13.33;;
76210;SDS011;65003;49.518;11.280;2024-01-15T10:12:24;29.63;;;14.40;;
76210;SDS011;65003;49.518;11.280;2024-01-15T10:14:51;27.97;;;14.50;;
76210;SDS011;65003;49.518;11.280;2024-01-15T10:17:18;23.80;;;11.10;;
76210;SDS011;65003;49.518;11.280;2024-01-15T10:19:45;22.70;;;10.87;;
76210;SDS011;65003;49.518;11.280;2024-01-15T10:22:13;19.03;;;10.20;;
76210;SDS011;65003;49.518;11.280;2024-01-15T10:24:40;17.30;;;8.67;;
76210;SDS011;65003;49.518;11.280;2024-01-15T10:27:05;19.57;;;9.73;;
76210;SDS011;65003;49.518;11.280;2024-01-15T10:29:33;20.47;;;10.33;;
76210;SDS011;65003;49.518;11.280;2024-01-15T10:32:00;38.50;;;19.17;;
76210;SDS011;65003;49.518;11.280;2024-01-15T10:34:26;26.67;;;13.37;;
76210;SDS011;65003;49.518;11.280;2024-01-15T10:36:54;36.23;;;17.47;;
76210;SDS011;65003;49.518;11.280;2024-01-15T10:39:22;71.43;;;30.97;;
76210;SDS011;65003;49.518;11.280;2024-01-15T10:41:48;86.03;;;39.77;;
76210;SDS011;65003;49.518;11.280;2024-01-15T10:44:14;57.30;;;25.73;;
76210;SDS011;65003;49.518;11.280;2024-01-15T10:46:41;35.33;;;16.80;;
76210;SDS011;65003;49.518;11.280;2024-01-15T10:49:08;44.00;;;20.33;;
76210;SDS011;65003;49.518;11.280;2024-01-15T10:51:34;49.37;;;22.23;;
76210;SDS011;65003;49.518;11.280;2024-01-15T10:54:01;50.47;;;27.40;;
76210;SDS011;65003;49.518;11.280;2024-01-15T10:56:27;24.13;;;12.37;;
76210;SDS011;65003;49.518;11.280;2024-01-15T10:58:54;28.87;;;18.97;;
76210;SDS011;65003;49.518;11.280;2024-01-15T11:01:21;25.37;;;20.20;;
76210;SDS011;65003;49.518;11.280;2024-01-15T11:03:47;15.80;;;9.93;;
76210;SDS011;65003;49.518;11.280;2024-01-15T11:06:17;22.43;;;15.83;;
76210;SDS011;65003;49.518;11.280;2024-01-15T11:08:48;14.10;;;8.77;;
76210;SDS011;65003;49.518;11.280;2024-01-15T11:11:15;16.67;;;9.00;;
76210;SDS011;65003;49.518;11.280;2024-01-15T11:13:41;17.63;;;9.90;;
76210;SDS011;65003;49.518;11.280;2024-01-15T11:16:09;13.17;;;7.67;;
76210;SDS011;65003;49.518;11.280;2024-01-15T11:18:36;38.77;;;20.93;;
76210;SDS011;65003;49.518;11.280;2024-01-15T11:23:50;18.73;;;10.37;;
76210;SDS011;65003;49.518;11.280;2024-01-15T11:28:53;26.30;;;14.37;;
76210;SDS011;65003;49.518;11.280;2024-01-15T11:31:19;15.87;;;9.80;;
76210;SDS011;65003;49.518;11.280;2024-01-15T11:33:48;19.60;;;10.97;;
76210;SDS011;65003;49.518;11.280;2024-01-15T11:36:14;20.27;;;9.87;;
76210;SDS011;65003;49.518;11.280;2024-01-15T11:38:40;18.00;;;9.90;;
76210;SDS011;65003;49.518;11.280;2024-01-15T11:41:14;30.70;;;18.50;;
76210;SDS011;65003;49.518;11.280;2024-01-15T11:43:41;28.77;;;15.30;;
76210;SDS011;65003;49.518;11.280;2024-01-15T11:46:10;23.17;;;12.73;;
76210;SDS011;65003;49.518;11.280;2024-01-15T11:48:42;27.37;;;14.17;;
76210;SDS011;65003;49.518;11.280;2024-01-15T11:51:11;19.40;;;13.07;;
76210;SDS011;65003;49.518;11.280;2024-01-15T11:53:43;16.03;;;8.77;;
76210;SDS011;65003;49.518;11.280;2024-01-15T11:56:15;15.67;;;9.10;;
76210;SDS011;65003;49.518;11.280;2024-01-15T11:58:38;18.23;;;9.73;;
76210;SDS011;65003;49.518;11.280;2024-01-15T12:01:05;47.63;;;21.57;;
76210;SDS011;65003;49.518;11.280;2024-01-15T12:03:32;26.80;;;12.53;;
76210;SDS011;65003;49.518;11.280;2024-01-15T12:05:58;25.70;;;13.30;;
76210;SDS011;65003;49.518;11.280;2024-01-15T12:08:24;38.90;;;17.67;;
76210;SDS011;65003;49.518;11.280;2024-01-15T12:10:51;55.13;;;23.30;;
76210;SDS011;65003;49.518;11.280;2024-01-15T12:13:18;25.93;;;15.10;;
76210;SDS011;65003;49.518;11.280;2024-01-15T12:15:45;16.90;;;8.97;;
76210;SDS011;65003;49.518;11.280;2024-01-15T12:18:12;15.93;;;10.43;;
76210;SDS011;65003;49.518;11.280;2024-01-15T12:20:39;14.07;;;8.60;;
76210;SDS011;65003;49.518;11.280;2024-01-15T12:23:06;14.83;;;9.50;;
76210;SDS011;65003;49.518;11.280;2024-01-15T12:25:33;13.97;;;8.03;;
76210;SDS011;65003;49.518;11.280;2024-01-15T12:28:00;14.20;;;7.70;;
76210;SDS011;65003;49.518;11.280;2024-01-15T12:30:27;16.37;;;9.80;;
76210;SDS011;65003;49.518;11.280;2024-01-15T12:32:54;17.27;;;9.83;;
76210;SDS011;65003;49.518;11.280;2024-01-15T12:35:20;16.67;;;9.93;;
76210;SDS011;65003;49.518;11.280;2024-01-15T12:37:47;14.00;;;7.90;;
76210;SDS011;65003;49.518;11.280;2024-01-15T12:40:13;13.20;;;7.07;;
76210;SDS011;65003;49.518;11.280;2024-01-15T12:42:40;12.10;;;7.60;;
76210;SDS011;65003;49.518;11.280;2024-01-15T12:45:06;11.00;;;7.10;;
76210;SDS011;65003;49.518;11.280;2024-01-15T12:47:33;12.20;;;7.63;;
76210;SDS011;65003;49.518;11.280;2024-01-15T12:50:00;11.93;;;6.73;;
76210;SDS011;65003;49.518;11.280;2024-01-15T12:52:27;11.73;;;8.40;;
76210;SDS011;65003;49.518;11.280;2024-01-15T12:54:54;10.13;;;5.47;;
76210;SDS011;65003;49.518;11.280;2024-01-15T12:57:21;10.67;;;6.77;;
76210;SDS011;65003;49.518;11.280;2024-01-15T12:59:48;15.77;;;7.30;;
76210;SDS011;65003;49.518;11.280;2024-01-15T13:02:14;11.67;;;6.40;;
76210;SDS011;65003;49.518;11.280;2024-01-15T13:04:40;11.10;;;5.57;;
76210;SDS011;65003;49.518;11.280;2024-01-15T13:07:07;11.77;;;6.73;;
76210;SDS011;65003;49.518;11.280;2024-01-15T13:09:34;13.43;;;6.73;;
76210;SDS011;65003;49.518;11.280;2024-01-15T13:12:01;11.27;;;6.67;;
76210;SDS011;65003;49.518;11.280;2024-01-15T13:14:28;9.10;;;6.00;;
76210;SDS011;65003;49.518;11.280;2024-01-15T13:16:55;11.20;;;6.47;;
76210;SDS011;65003;49.518;11.280;2024-01-15T13:19:22;12.07;;;7.13;;
76210;SDS011;65003;49.518;11.280;2024-01-15T13:21:48;12.83;;;6.37;;
76210;SDS011;65003;49.518;11.280;2024-01-15T13:24:15;11.73;;;7.00;;
76210;SDS011;65003;49.518;11.280;2024-01-15T13:26:41;13.13;;;7.23;;
76210;SDS011;65003;49.518;11.280;2024-01-15T13:29:08;8.93;;;5.70;;
76210;SDS011;65003;49.518;11.280;2024-01-15T13:31:35;9.10;;;5.90;;
76210;SDS011;65003;49.518;11.280;2024-01-15T13:34:01;10.20;;;6.47;;
76210;SDS011;65003;49.518;11.280;2024-01-15T13:36:28;8.57;;;6.13;;
76210;SDS011;65003;49.518;11.280;2024-01-15T13:38:54;9.90;;;6.00;;
76210;SDS011;65003;49.518;11.280;2024-01-15T13:41:21;8.47;;;5.50;;
76210;SDS011;65003;49.518;11.280;2024-01-15T13:43:48;8.30;;;5.53;;
76210;SDS011;65003;49.518;11.280;2024-01-15T13:46:14;13.57;;;7.77;;
76210;SDS011;65003;49.518;11.280;2024-01-15T13:48:41;9.83;;;5.97;;
76210;SDS011;65003;49.518;11.280;2024-01-15T13:51:07;12.10;;;6.70;;
76210;SDS011;65003;49.518;11.280;2024-01-15T13:53:34;8.20;;;6.27;;
76210;SDS011;65003;49.518;11.280;2024-01-15T13:56:00;10.70;;;5.57;;
76210;SDS011;65003;49.518;11.280;2024-01-15T13:58:27;9.57;;;5.43;;
76210;SDS011;65003;49.518;11.280;2024-01-15T14:00:54;8.80;;;5.80;;
76210;SDS011;65003;49.518;11.280;2024-01-15T14:03:20;13.63;;;5.37;;
76210;SDS011;65003;49.518;11.280;2024-01-15T14:05:47;9.03;;;5.17;;
76210;SDS011;65003;49.518;11.280;2024-01-15T14:08:13;8.40;;;4.63;;
76210;SDS011;65003;49.518;11.280;2024-01-15T14:10:40;7.47;;;5.03;;
76210;SDS011;65003;49.518;11.280;2024-01-15T14:13:07;8.73;;;5.00;;
76210;SDS011;65003;49.518;11.280;2024-01-15T14:15:33;6.67;;;4.77;;